createdAt,value
2023-02-16T00:02:30.116Z,101997.97
2023-02-16T00:05:34.359Z,101990.06
2023-02-16T00:08:35.907Z,101997.06
2023-02-16T00:11:56.297Z,101988.28
2023-02-16T00:14:58.341Z,102003.25
2023-02-16T00:18:02.866Z,102002.38
2023-02-16T00:21:04.667Z,101996.16
2023-02-16T00:24:06.703Z,101988.28
2023-02-16T00:27:16.171Z,101987.34
2023-02-16T00:30:21.015Z,101982.97
2023-02-16T00:33:22.976Z,101976.81
2023-02-16T00:36:25.195Z,101973.25
2023-02-16T00:39:27.330Z,101975.03
2023-02-16T00:42:32.890Z,101975.88
2023-02-16T00:45:37.776Z,101972.44
2023-02-16T00:48:39.262Z,101975.09
2023-02-16T00:51:40.972Z,101969.88
2023-02-16T00:54:42.510Z,101967.31
2023-02-16T00:57:44.014Z,101973.41
2023-02-16T01:00:55.299Z,101966.44
2023-02-16T01:04:02.245Z,101969.09
2023-02-16T01:07:30.848Z,101978.78
2023-02-16T01:10:53.837Z,101977.91
2023-02-16T01:13:56.567Z,101971.78
2023-02-16T01:16:58.562Z,101966.53
2023-02-16T01:20:00.124Z,101965.69
2023-02-16T01:23:01.688Z,101965.69
2023-02-16T01:26:04.008Z,101957.78
2023-02-16T01:29:05.540Z,101963.97
2023-02-16T01:32:07.195Z,101962.22
2023-02-16T01:35:10.285Z,101961.41
2023-02-16T01:38:21.929Z,101966.66
2023-02-16T01:41:40.436Z,101960.47
2023-02-16T01:44:59.503Z,101956.16
2023-02-16T01:48:07.234Z,101956.19
2023-02-16T01:51:26.814Z,101963.25
2023-02-16T01:54:43.225Z,101961.50
2023-02-16T01:57:55.084Z,101970.31
2023-02-16T02:01:53.050Z,101957.16
2023-02-16T02:05:18.685Z,101965.09
2023-02-16T02:08:20.409Z,101958.97
2023-02-16T02:11:31.327Z,101960.72
2023-02-16T02:14:38.576Z,101958.91
2023-02-16T02:17:40.160Z,101953.66
2023-02-16T02:21:21.873Z,101962.41
2023-02-16T02:24:44.521Z,101950.97
2023-02-16T02:28:08.002Z,101950.09
2023-02-16T02:31:33.286Z,101950.97
2023-02-16T02:34:40.886Z,101953.59
2023-02-16T02:37:56.296Z,101938.72
2023-02-16T02:41:08.276Z,101935.19
2023-02-16T02:44:11.039Z,101930.81
2023-02-16T02:47:12.735Z,101933.47
2023-02-16T02:51:06.752Z,101929.13
2023-02-16T02:54:43.007Z,101930.88
2023-02-16T02:58:12.460Z,101923.84
2023-02-16T03:01:18.781Z,101917.72
2023-02-16T03:04:27.553Z,101914.22
2023-02-16T03:07:47.248Z,101921.22
2023-02-16T03:11:12.312Z,101910.75
2023-02-16T03:14:26.448Z,101905.47
2023-02-16T03:17:55.017Z,101902.84
2023-02-16T03:21:15.608Z,101902.84
2023-02-16T03:24:42.983Z,101893.25
2023-02-16T03:28:03.969Z,101893.25
2023-02-16T03:31:08.255Z,101886.28
2023-02-16T03:34:10.468Z,101882.81
2023-02-16T03:37:13.314Z,101881.91
2023-02-16T03:40:29.782Z,101877.56
2023-02-16T03:43:32.115Z,101872.34
2023-02-16T03:46:34.294Z,101862.75
2023-02-16T03:49:35.787Z,101875.91
2023-02-16T03:52:37.537Z,101875.94
2023-02-16T03:55:47.932Z,101880.34
2023-02-16T03:58:49.510Z,101886.53
2023-02-16T04:01:51.904Z,101878.69
2023-02-16T04:04:53.554Z,101887.44
2023-02-16T04:07:55.646Z,101879.59
2023-02-16T04:10:57.660Z,101883.13
2023-02-16T04:13:59.270Z,101876.16
2023-02-16T04:17:01.022Z,101876.16
2023-02-16T04:20:02.808Z,101888.47
2023-02-16T04:23:04.478Z,101891.97
2023-02-16T04:26:06.033Z,101890.22
2023-02-16T04:29:07.606Z,101901.66
2023-02-16T04:32:09.575Z,101899.03
2023-02-16T04:35:11.384Z,101894.66
2023-02-16T04:38:12.913Z,101899.09
2023-02-16T04:41:14.440Z,101885.06
2023-02-16T04:44:15.989Z,101899.97
2023-02-16T04:47:17.697Z,101902.59
2023-02-16T04:50:19.405Z,101885.09
2023-02-16T04:53:20.922Z,101886.84
2023-02-16T04:56:22.991Z,101889.50
2023-02-16T04:59:24.780Z,101878.09
2023-02-16T05:02:26.402Z,101875.44
2023-02-16T05:05:28.003Z,101878.97
2023-02-16T05:08:30.234Z,101873.69
2023-02-16T05:11:50.986Z,101875.47
2023-02-16T05:14:52.536Z,101872.81
2023-02-16T05:17:54.064Z,101867.56
2023-02-16T05:21:14.230Z,101858.78
2023-02-16T05:24:15.773Z,101851.78
2023-02-16T05:27:20.136Z,101848.28
2023-02-16T05:30:21.714Z,101849.16
2023-02-16T05:33:23.568Z,101853.47
2023-02-16T05:36:25.579Z,101860.44
2023-02-16T05:39:27.419Z,101866.25
2023-02-16T05:42:28.955Z,101865.47
2023-02-16T05:45:30.540Z,101873.19
2023-02-16T05:48:32.086Z,101868.78
2023-02-16T05:51:34.379Z,101874.09
2023-02-16T05:54:36.379Z,101865.31
2023-02-16T05:57:37.941Z,101866.25
2023-02-16T06:00:39.489Z,101861.88
2023-02-16T06:03:41.329Z,101868.06
2023-02-16T06:06:43.930Z,101859.31
2023-02-16T06:09:45.537Z,101859.31
2023-02-16T06:12:47.169Z,101862.81
2023-02-16T06:15:53.023Z,101865.41
2023-02-16T06:18:54.882Z,101868.00
2023-02-16T06:21:56.494Z,101859.22
2023-02-16T06:24:58.074Z,101849.56
2023-02-16T06:27:59.951Z,101855.66
2023-02-16T06:31:01.563Z,101854.78
2023-02-16T06:34:03.931Z,101858.22
2023-02-16T06:37:05.788Z,101865.22
2023-02-16T06:40:09.997Z,101873.94
2023-02-16T06:43:11.607Z,101875.69
2023-02-16T06:46:13.163Z,101888.81
2023-02-16T06:49:19.902Z,101886.19
2023-02-16T06:52:21.942Z,101885.25
2023-02-16T06:55:23.608Z,101880.84
2023-02-16T06:58:25.192Z,101885.19
2023-02-16T07:01:26.740Z,101872.00
2023-02-16T07:04:28.420Z,101873.69
2023-02-16T07:07:31.327Z,101872.78
2023-02-16T07:10:48.637Z,101875.34
2023-02-16T07:13:51.267Z,101870.97
2023-02-16T07:16:52.830Z,101875.31
2023-02-16T07:19:54.448Z,101881.41
2023-02-16T07:22:56.298Z,101880.47
2023-02-16T07:25:57.929Z,101881.28
2023-02-16T07:28:59.526Z,101873.31
2023-02-16T07:32:02.365Z,101868.88
2023-02-16T07:35:04.913Z,101864.47
2023-02-16T07:38:06.694Z,101865.25
2023-02-16T07:41:09.901Z,101858.19
2023-02-16T07:44:11.950Z,101865.13
2023-02-16T07:47:14.518Z,101880.88
2023-02-16T07:50:16.590Z,101872.88
2023-02-16T07:53:18.760Z,101871.94
2023-02-16T07:56:26.247Z,101870.09
2023-02-16T07:59:27.782Z,101867.41
2023-02-16T08:02:29.486Z,101862.94
2023-02-16T08:05:31.178Z,101867.22
2023-02-16T08:08:33.534Z,101864.53
2023-02-16T08:11:35.070Z,101864.31
2023-02-16T08:14:37.643Z,101856.78
2023-02-16T08:17:39.421Z,101860.22
2023-02-16T08:21:01.424Z,101861.97
2023-02-16T08:24:06.030Z,101864.53
2023-02-16T08:27:07.624Z,101861.84
2023-02-16T08:30:12.865Z,101857.44
2023-02-16T08:33:14.557Z,101873.19
2023-02-16T08:36:28.247Z,101879.31
2023-02-16T08:39:32.880Z,101869.63
2023-02-16T08:42:34.423Z,101880.13
2023-02-16T08:45:36.004Z,101868.69
2023-02-16T08:48:38.506Z,101875.66
2023-02-16T08:51:49.588Z,101882.63
2023-02-16T08:54:51.254Z,101888.75
2023-02-16T08:57:52.784Z,101886.94
2023-02-16T09:00:54.438Z,101878.09
2023-02-16T09:03:56.103Z,101883.22
2023-02-16T09:06:59.490Z,101891.06
2023-02-16T09:10:03.544Z,101879.50
2023-02-16T09:13:05.224Z,101886.50
2023-02-16T09:16:10.198Z,101901.38
2023-02-16T09:19:14.976Z,101890.69
2023-02-16T09:22:16.565Z,101894.06
2023-02-16T09:25:18.126Z,101884.31
2023-02-16T09:28:20.678Z,101885.00
2023-02-16T09:31:29.059Z,101897.16
2023-02-16T09:34:30.703Z,101896.16
2023-02-16T09:37:32.813Z,101900.41
2023-02-16T09:40:36.659Z,101900.97
2023-02-16T09:43:54.535Z,101908.91
2023-02-16T09:46:58.842Z,101903.34
2023-02-16T09:50:06.424Z,101905.00
2023-02-16T09:53:30.272Z,101911.09
2023-02-16T09:56:38.136Z,101908.31
2023-02-16T10:00:08.644Z,101905.53
2023-02-16T10:03:25.577Z,101910.78
2023-02-16T10:06:34.270Z,101916.00
2023-02-16T10:09:37.156Z,101926.50
2023-02-16T10:12:43.831Z,101913.22
2023-02-16T10:15:46.089Z,101914.00
2023-02-16T10:18:50.598Z,101919.22
2023-02-16T10:21:58.803Z,101923.56
2023-02-16T10:25:12.060Z,101921.78
2023-02-16T10:28:32.638Z,101922.53
2023-02-16T10:31:43.907Z,101923.31
2023-02-16T10:35:11.779Z,101921.53
2023-02-16T10:38:20.579Z,101920.53
2023-02-16T10:41:33.014Z,101916.97
2023-02-16T10:44:43.679Z,101908.94
2023-02-16T10:47:46.142Z,101916.75
2023-02-16T10:51:09.765Z,101911.38
2023-02-16T10:54:19.217Z,101909.53
2023-02-16T10:57:31.017Z,101921.78
2023-02-16T11:00:51.927Z,101924.31
2023-02-16T11:03:54.439Z,101932.97
2023-02-16T11:07:23.577Z,101930.25
2023-02-16T11:10:53.280Z,101921.41
2023-02-16T11:14:04.706Z,101930.16
2023-02-16T11:17:14.623Z,101930.06
2023-02-16T11:20:50.771Z,101918.53
2023-02-16T11:24:02.196Z,101921.16
2023-02-16T11:27:13.474Z,101933.44
2023-02-16T11:30:22.675Z,101933.41
2023-02-16T11:33:27.655Z,101921.91
2023-02-16T11:36:35.462Z,101919.25
2023-02-16T11:39:40.946Z,101911.22
2023-02-16T11:42:48.291Z,101907.66
2023-02-16T11:46:07.988Z,101916.41
2023-02-16T11:49:42.314Z,101918.13
2023-02-16T11:52:43.980Z,101905.81
2023-02-16T11:55:48.130Z,101918.13
2023-02-16T11:59:14.643Z,101906.63
2023-02-16T12:02:34.776Z,101906.63
2023-02-16T12:06:08.046Z,101900.47
2023-02-16T12:09:31.166Z,101893.13
2023-02-16T12:12:38.583Z,101885.00
2023-02-16T12:16:15.426Z,101887.47
2023-02-16T12:19:42.026Z,101888.44
2023-02-16T12:22:50.374Z,101884.16
2023-02-16T12:26:23.630Z,101890.44
2023-02-16T12:29:28.156Z,101880.00
2023-02-16T12:33:15.361Z,101887.06
2023-02-16T12:36:55.746Z,101881.84
2023-02-16T12:39:57.226Z,101875.69
2023-02-16T12:43:20.189Z,101876.47
2023-02-16T12:46:28.242Z,101857.88
2023-02-16T12:49:55.606Z,101855.84
2023-02-16T12:53:22.850Z,101837.22
2023-02-16T12:56:33.062Z,101838.22
2023-02-16T12:59:46.200Z,101833.06
2023-02-16T13:02:53.406Z,101833.16
2023-02-16T13:06:14.544Z,101835.94
2023-02-16T13:09:35.831Z,101827.38
2023-02-16T13:12:43.313Z,101818.66
2023-02-16T13:15:53.831Z,101814.41
2023-02-16T13:18:57.227Z,101818.84
2023-02-16T13:22:22.135Z,101802.94
2023-02-16T13:25:44.778Z,101803.91
2023-02-16T13:29:02.086Z,101805.88
2023-02-16T13:35:57.386Z,101796.38
2023-02-16T13:39:38.091Z,101799.19
2023-02-16T13:43:24.752Z,101809.88
2023-02-16T13:46:32.168Z,101809.03
2023-02-16T13:49:43.310Z,101797.59
2023-02-16T13:52:45.131Z,101794.06
2023-02-16T13:55:48.162Z,101795.84
2023-02-16T13:58:52.936Z,101792.41
2023-02-16T14:01:55.909Z,101799.53
2023-02-16T14:04:57.449Z,101801.34
2023-02-16T14:08:19.482Z,101801.34
2023-02-16T14:11:21.804Z,101797.91
2023-02-16T14:14:43.241Z,101802.34
2023-02-16T14:17:45.960Z,101791.88
2023-02-16T14:20:59.674Z,101793.59
2023-02-16T14:24:03.328Z,101793.31
2023-02-16T14:27:13.074Z,101795.63
2023-02-16T14:30:21.021Z,101799.88
2023-02-16T14:33:41.432Z,101789.22
2023-02-16T14:37:17.134Z,101795.38
2023-02-16T14:40:21.560Z,101788.38
2023-02-16T14:43:25.420Z,101775.13
2023-02-16T14:47:11.825Z,101774.19
2023-02-16T14:50:46.002Z,101782.13
2023-02-16T14:53:47.509Z,101783.00
2023-02-16T14:56:54.676Z,101782.09
2023-02-16T15:00:02.060Z,101789.06
2023-02-16T15:03:17.909Z,101796.88
2023-02-16T15:06:42.817Z,101795.91
2023-02-16T15:09:47.705Z,101797.56
2023-02-16T15:12:49.514Z,101805.50
2023-02-16T15:15:56.084Z,101801.94
2023-02-16T15:18:58.269Z,101799.31
2023-02-16T15:22:18.437Z,101784.31
2023-02-16T15:25:25.126Z,101782.47
2023-02-16T15:28:29.782Z,101780.69
2023-02-16T15:31:37.265Z,101771.81
2023-02-16T15:34:41.131Z,101766.56
2023-02-16T15:37:42.726Z,101762.22
2023-02-16T15:40:45.396Z,101756.84
2023-02-16T15:43:49.241Z,101754.16
2023-02-16T15:46:52.301Z,101767.41
2023-02-16T15:49:55.095Z,101765.59
2023-02-16T15:52:56.764Z,101766.44
2023-02-16T15:55:58.474Z,101770.72
2023-02-16T15:59:03.236Z,101776.47
2023-02-16T16:02:11.104Z,101764.44
2023-02-16T16:05:28.428Z,101765.09
2023-02-16T16:08:31.134Z,101747.59
2023-02-16T16:11:33.802Z,101755.75
2023-02-16T16:14:39.853Z,101757.75
2023-02-16T16:17:41.641Z,101755.28
2023-02-16T16:20:44.214Z,101750.19
2023-02-16T16:24:07.799Z,101763.66
2023-02-16T16:27:12.672Z,101746.69
2023-02-16T16:30:20.771Z,101744.22
2023-02-16T16:33:22.417Z,101744.28
2023-02-16T16:36:29.823Z,101740.84
2023-02-16T16:39:38.663Z,101745.44
2023-02-16T16:43:07.383Z,101733.41
2023-02-16T16:46:19.107Z,101736.25
2023-02-16T16:49:20.742Z,101728.41
2023-02-16T16:52:31.126Z,101725.09
2023-02-16T16:55:34.500Z,101713.81
2023-02-16T16:58:36.464Z,101706.94
2023-02-16T17:01:38.107Z,101705.19
2023-02-16T17:04:39.664Z,101704.34
2023-02-16T17:07:41.264Z,101699.97
2023-02-16T17:10:43.071Z,101707.28
2023-02-16T17:13:44.606Z,101715.50
2023-02-16T17:16:48.843Z,101701.25
2023-02-16T17:19:50.504Z,101690.66
2023-02-16T17:22:52.157Z,101696.09
2023-02-16T17:25:55.039Z,101700.09
2023-02-16T17:28:56.618Z,101703.41
2023-02-16T17:31:58.269Z,101694.69
2023-02-16T17:34:59.866Z,101706.34
2023-02-16T17:38:26.793Z,101698.41
2023-02-16T17:41:29.633Z,101703.00
2023-02-16T17:44:31.171Z,101707.63
2023-02-16T17:47:32.885Z,101699.88
2023-02-16T17:50:34.566Z,101713.25
2023-02-16T17:53:36.194Z,101708.88
2023-02-16T17:56:41.958Z,101709.81
2023-02-16T17:59:43.547Z,101710.72
2023-02-16T18:02:45.234Z,101710.00
2023-02-16T18:05:46.813Z,101698.66
2023-02-16T18:08:48.347Z,101691.78
2023-02-16T18:11:51.226Z,101690.09
2023-02-16T18:14:52.790Z,101687.56
2023-02-16T18:17:55.456Z,101686.59
2023-02-16T18:20:57.137Z,101687.50
2023-02-16T18:23:58.689Z,101682.28
2023-02-16T18:27:00.426Z,101686.63
2023-02-16T18:30:02.210Z,101678.88
2023-02-16T18:33:03.824Z,101680.84
2023-02-16T18:36:06.501Z,101673.09
2023-02-16T18:39:09.729Z,101674.94
2023-02-16T18:42:11.344Z,101675.81
2023-02-16T18:45:12.958Z,101667.97
2023-02-16T18:48:14.638Z,101660.13
2023-02-16T18:51:17.496Z,101660.16
2023-02-16T18:54:19.039Z,101655.66
2023-02-16T18:57:22.674Z,101657.38
2023-02-16T19:00:24.270Z,101645.91
2023-02-16T19:03:26.061Z,101643.25
2023-02-16T19:06:27.997Z,101643.34
2023-02-16T19:09:29.581Z,101644.38
2023-02-16T19:12:31.116Z,101642.53
2023-02-16T19:15:33.856Z,101636.19
2023-02-16T19:18:35.553Z,101637.84
2023-02-16T19:21:38.327Z,101637.06
2023-02-16T19:24:40.012Z,101630.97
2023-02-16T19:27:41.871Z,101626.50
2023-02-16T19:30:43.488Z,101625.59
2023-02-16T19:33:45.195Z,101623.72
2023-02-16T19:36:46.781Z,101622.03
2023-02-16T19:39:48.414Z,101614.97
2023-02-16T19:42:50.112Z,101609.69
2023-02-16T19:45:52.251Z,101608.81
2023-02-16T19:48:54.800Z,101607.09
2023-02-16T19:51:56.483Z,101600.94
2023-02-16T19:54:58.107Z,101593.91
2023-02-16T19:57:59.675Z,101593.00
2023-02-16T20:01:21.899Z,101583.19
2023-02-16T20:04:23.673Z,101577.88
2023-02-16T20:07:25.245Z,101576.16
2023-02-16T20:10:28.086Z,101570.81
2023-02-16T20:13:29.654Z,101573.38
2023-02-16T20:16:31.424Z,101567.19
2023-02-16T20:19:32.980Z,101570.69
2023-02-16T20:22:34.690Z,101563.63
2023-02-16T20:25:39.841Z,101561.72
2023-02-16T20:28:41.794Z,101566.16
2023-02-16T20:31:54.935Z,101551.97
2023-02-16T20:34:56.678Z,101555.44
2023-02-16T20:37:58.222Z,101551.84
2023-02-16T20:40:59.789Z,101539.53
2023-02-16T20:44:02.888Z,101529.06
2023-02-16T20:47:04.472Z,101534.28
2023-02-16T20:50:06.513Z,101529.94
2023-02-16T20:53:08.581Z,101528.13
2023-02-16T20:56:17.440Z,101521.97
2023-02-16T20:59:18.970Z,101516.72
2023-02-16T21:02:20.585Z,101507.84
2023-02-16T21:05:22.898Z,101502.56
2023-02-16T21:08:24.440Z,101507.84
2023-02-16T21:11:26.230Z,101504.41
2023-02-16T21:14:28.236Z,101491.22
2023-02-16T21:17:29.874Z,101494.66
2023-02-16T21:20:31.659Z,101494.66
2023-02-16T21:23:33.254Z,101483.06
2023-02-16T21:26:34.838Z,101475.94
2023-02-16T21:29:36.864Z,101475.94
2023-02-16T21:32:38.443Z,101478.56
2023-02-16T21:35:39.950Z,101479.50
2023-02-16T21:38:42.335Z,101472.41
2023-02-16T21:41:43.913Z,101470.63
2023-02-16T21:44:49.937Z,101473.13
2023-02-16T21:48:09.955Z,101473.84
2023-02-16T21:51:13.318Z,101486.13
2023-02-16T21:54:18.164Z,101487.75
2023-02-16T21:57:19.685Z,101478.03
2023-02-16T22:00:21.319Z,101478.03
2023-02-16T22:03:22.869Z,101470.91
2023-02-16T22:06:26.271Z,101462.97
2023-02-16T22:09:27.853Z,101459.47
2023-02-16T22:12:29.411Z,101448.00
2023-02-16T22:15:31.554Z,101437.28
2023-02-16T22:18:33.109Z,101438.06
2023-02-16T22:21:37.450Z,101441.50
2023-02-16T22:24:39.267Z,101438.91
2023-02-16T22:27:41.321Z,101432.66
2023-02-16T22:30:44.519Z,101437.06
2023-02-16T22:33:47.366Z,101433.53
2023-02-16T22:36:49.738Z,101430.00
2023-02-16T22:39:52.061Z,101437.06
2023-02-16T22:42:53.660Z,101438.69
2023-02-16T22:45:55.275Z,101438.63
2023-02-16T22:48:58.854Z,101420.94
2023-02-16T22:52:00.499Z,101425.31
2023-02-16T22:55:02.106Z,101414.63
2023-02-16T22:58:03.731Z,101407.59
2023-02-16T23:01:14.591Z,101406.59
2023-02-16T23:04:16.895Z,101396.94
2023-02-16T23:07:18.471Z,101399.59
2023-02-16T23:10:20.106Z,101400.44
2023-02-16T23:13:21.653Z,101406.53
2023-02-16T23:16:25.851Z,101400.59
2023-02-16T23:19:27.492Z,101392.66
2023-02-16T23:22:30.617Z,101393.50
2023-02-16T23:25:34.914Z,101378.53
2023-02-16T23:28:38.200Z,101379.38
2023-02-16T23:31:42.288Z,101370.63
2023-02-16T23:34:44.358Z,101373.25
2023-02-16T23:37:46.721Z,101373.34
2023-02-16T23:40:57.210Z,101376.91
2023-02-16T23:44:00.966Z,101366.31
2023-02-16T23:47:02.757Z,101364.59
2023-02-16T23:50:04.693Z,101361.88
2023-02-16T23:53:06.281Z,101364.44
2023-02-16T23:56:12.506Z,101357.44
2023-02-16T23:59:14.022Z,101355.56
